sensor_id;sensor_type;location;lat;lon;timestamp;pressure;altitude;pressure_sealevel;temperature;humidity
62038;BME280;47991;42.974;12.082;2022-10-22T00:00:23;98274.15;;;16.48;84.22
62038;BME280;47991;42.974;12.082;2022-10-22T00:03:11;98276.82;;;16.44;84.67
62038;BME280;47991;42.974;12.082;2022-10-22T00:05:38;98274.84;;;16.44;84.46
62038;BME280;47991;42.974;12.082;2022-10-22T00:08:05;98273.77;;;16.44;85.20
62038;BME280;47991;42.974;12.082;2022-10-22T00:10:33;98267.89;;;16.48;85.18
62038;BME280;47991;42.974;12.082;2022-10-22T00:13:00;98274.14;;;16.44;85.98
62038;BME280;47991;42.974;12.082;2022-10-22T00:15:28;98278.74;;;16.49;85.74
62038;BME280;47991;42.974;12.082;2022-10-22T00:17:55;98266.92;;;16.45;86.21
62038;BME280;47991;42.974;12.082;2022-10-22T00:20:22;98269.30;;;16.44;86.06
62038;BME280;47991;42.974;12.082;2022-10-22T00:22:49;98262.16;;;16.44;86.90
62038;BME280;47991;42.974;12.082;2022-10-22T00:25:17;98251.40;;;16.46;86.48
62038;BME280;47991;42.974;12.082;2022-10-22T00:27:44;98250.13;;;16.50;85.87
62038;BME280;47991;42.974;12.082;2022-10-22T00:30:11;98241.95;;;16.54;85.45
62038;BME280;47991;42.974;12.082;2022-10-22T00:32:39;98243.26;;;16.49;86.30
62038;BME280;47991;42.974;12.082;2022-10-22T00:35:07;98245.36;;;16.49;86.00
62038;BME280;47991;42.974;12.082;2022-10-22T00:37:34;98249.27;;;16.49;86.07
62038;BME280;47991;42.974;12.082;2022-10-22T00:40:03;98247.36;;;16.53;85.79
62038;BME280;47991;42.974;12.082;2022-10-22T00:42:30;98247.99;;;16.54;85.38
62038;BME280;47991;42.974;12.082;2022-10-22T00:47:53;98248.50;;;16.55;85.40
62038;BME280;47991;42.974;12.082;2022-10-22T00:50:42;98246.00;;;16.51;85.65
62038;BME280;47991;42.974;12.082;2022-10-22T00:53:25;98246.78;;;16.49;85.74
62038;BME280;47991;42.974;12.082;2022-10-22T00:55:56;98252.50;;;16.49;85.79
62038;BME280;47991;42.974;12.082;2022-10-22T00:58:27;98259.68;;;16.48;85.67
62038;BME280;47991;42.974;12.082;2022-10-22T01:00:56;98263.56;;;16.49;85.13
62038;BME280;47991;42.974;12.082;2022-10-22T01:03:24;98264.50;;;16.52;84.70
62038;BME280;47991;42.974;12.082;2022-10-22T01:05:59;98259.91;;;16.55;84.54
62038;BME280;47991;42.974;12.082;2022-10-22T01:08:39;98251.80;;;16.53;84.76
62038;BME280;47991;42.974;12.082;2022-10-22T01:14:10;98261.85;;;16.56;84.50
62038;BME280;47991;42.974;12.082;2022-10-22T01:30:16;98240.83;;;16.47;84.56
62038;BME280;47991;42.974;12.082;2022-10-22T01:32:50;98241.62;;;16.45;84.63
62038;BME280;47991;42.974;12.082;2022-10-22T01:35:30;98240.81;;;16.43;84.53
62038;BME280;47991;42.974;12.082;2022-10-22T01:38:04;98241.67;;;16.39;84.45
62038;BME280;47991;42.974;12.082;2022-10-22T01:40:33;98244.36;;;16.43;84.25
62038;BME280;47991;42.974;12.082;2022-10-22T01:43:06;98252.77;;;16.43;84.26
62038;BME280;47991;42.974;12.082;2022-10-22T01:45:58;98257.64;;;16.41;84.15
62038;BME280;47991;42.974;12.082;2022-10-22T01:48:52;98251.84;;;16.40;84.11
62038;BME280;47991;42.974;12.082;2022-10-22T01:54:39;98248.79;;;16.32;84.84
62038;BME280;47991;42.974;12.082;2022-10-22T01:57:14;98241.52;;;16.27;85.12
62038;BME280;47991;42.974;12.082;2022-10-22T02:00:09;98243.64;;;16.23;85.58
62038;BME280;47991;42.974;12.082;2022-10-22T02:03:08;98240.83;;;16.26;84.93
62038;BME280;47991;42.974;12.082;2022-10-22T02:05:53;98235.46;;;16.23;85.28
62038;BME280;47991;42.974;12.082;2022-10-22T02:08:26;98228.41;;;16.24;84.92
62038;BME280;47991;42.974;12.082;2022-10-22T02:10:56;98221.11;;;16.28;84.27
62038;BME280;47991;42.974;12.082;2022-10-22T02:13:50;98219.62;;;16.30;84.26
62038;BME280;47991;42.974;12.082;2022-10-22T02:16:32;98215.59;;;16.24;84.78
62038;BME280;47991;42.974;12.082;2022-10-22T02:19:05;98212.05;;;16.24;84.64
62038;BME280;47991;42.974;12.082;2022-10-22T02:21:33;98212.60;;;16.27;84.22
62038;BME280;47991;42.974;12.082;2022-10-22T02:24:01;98206.77;;;16.30;84.14
62038;BME280;47991;42.974;12.082;2022-10-22T02:26:33;98210.86;;;16.31;84.37
62038;BME280;47991;42.974;12.082;2022-10-22T02:29:14;98209.30;;;16.29;84.62
62038;BME280;47991;42.974;12.082;2022-10-22T02:31:45;98208.02;;;16.30;84.32
62038;BME280;47991;42.974;12.082;2022-10-22T02:34:20;98208.38;;;16.30;84.36
62038;BME280;47991;42.974;12.082;2022-10-22T02:36:49;98203.33;;;16.31;84.19
62038;BME280;47991;42.974;12.082;2022-10-22T02:39:19;98185.76;;;16.33;84.10
62038;BME280;47991;42.974;12.082;2022-10-22T02:41:47;98185.23;;;16.33;84.48
62038;BME280;47991;42.974;12.082;2022-10-22T02:44:15;98176.85;;;16.33;84.30
62038;BME280;47991;42.974;12.082;2022-10-22T02:46:46;98172.20;;;16.33;84.11
62038;BME280;47991;42.974;12.082;2022-10-22T02:49:14;98175.09;;;16.32;84.42
62038;BME280;47991;42.974;12.082;2022-10-22T02:51:41;98171.18;;;16.36;84.05
62038;BME280;47991;42.974;12.082;2022-10-22T02:54:08;98170.79;;;16.37;84.15
62038;BME280;47991;42.974;12.082;2022-10-22T02:56:36;98171.13;;;16.37;83.95
62038;BME280;47991;42.974;12.082;2022-10-22T02:59:03;98177.33;;;16.34;84.33
62038;BME280;47991;42.974;12.082;2022-10-22T03:01:31;98175.34;;;16.34;84.38
62038;BME280;47991;42.974;12.082;2022-10-22T03:03:58;98174.98;;;16.35;84.08
62038;BME280;47991;42.974;12.082;2022-10-22T03:06:26;98173.45;;;16.33;84.34
62038;BME280;47991;42.974;12.082;2022-10-22T03:08:53;98177.91;;;16.33;84.18
62038;BME280;47991;42.974;12.082;2022-10-22T03:11:20;98181.27;;;16.34;84.36
62038;BME280;47991;42.974;12.082;2022-10-22T03:13:48;98180.90;;;16.34;84.33
62038;BME280;47991;42.974;12.082;2022-10-22T03:16:15;98182.20;;;16.33;84.11
62038;BME280;47991;42.974;12.082;2022-10-22T03:18:43;98189.76;;;16.31;84.55
62038;BME280;47991;42.974;12.082;2022-10-22T03:21:20;98186.59;;;16.30;85.27
62038;BME280;47991;42.974;12.082;2022-10-22T03:23:51;98183.06;;;16.30;85.18
62038;BME280;47991;42.974;12.082;2022-10-22T03:26:18;98187.08;;;16.27;85.28
62038;BME280;47991;42.974;12.082;2022-10-22T03:28:46;98188.95;;;16.30;85.24
62038;BME280;47991;42.974;12.082;2022-10-22T03:31:14;98190.08;;;16.28;85.40
62038;BME280;47991;42.974;12.082;2022-10-22T03:33:41;98194.02;;;16.32;84.72
62038;BME280;47991;42.974;12.082;2022-10-22T03:36:09;98199.92;;;16.31;85.02
62038;BME280;47991;42.974;12.082;2022-10-22T03:38:37;98205.25;;;16.28;85.06
62038;BME280;47991;42.974;12.082;2022-10-22T03:41:06;98207.88;;;16.29;85.13
62038;BME280;47991;42.974;12.082;2022-10-22T03:43:35;98206.51;;;16.28;85.63
62038;BME280;47991;42.974;12.082;2022-10-22T03:46:03;98202.54;;;16.25;85.82
62038;BME280;47991;42.974;12.082;2022-10-22T03:48:30;98197.25;;;16.23;85.78
62038;BME280;47991;42.974;12.082;2022-10-22T03:50:57;98191.33;;;16.20;86.34
62038;BME280;47991;42.974;12.082;2022-10-22T03:53:25;98194.16;;;16.17;86.19
62038;BME280;47991;42.974;12.082;2022-10-22T03:55:52;98194.66;;;16.21;85.90
62038;BME280;47991;42.974;12.082;2022-10-22T03:58:19;98200.98;;;16.24;86.18
62038;BME280;47991;42.974;12.082;2022-10-22T04:00:46;98196.70;;;16.24;85.82
62038;BME280;47991;42.974;12.082;2022-10-22T04:03:14;98197.63;;;16.23;85.73
62038;BME280;47991;42.974;12.082;2022-10-22T04:05:52;98207.92;;;16.24;85.63
62038;BME280;47991;42.974;12.082;2022-10-22T04:08:48;98216.84;;;16.20;86.34
62038;BME280;47991;42.974;12.082;2022-10-22T04:11:32;98210.59;;;16.16;86.36
62038;BME280;47991;42.974;12.082;2022-10-22T04:13:59;98210.67;;;16.19;86.07
62038;BME280;47991;42.974;12.082;2022-10-22T04:16:28;98207.88;;;16.17;86.32
62038;BME280;47991;42.974;12.082;2022-10-22T04:18:58;98207.19;;;16.20;85.93
62038;BME280;47991;42.974;12.082;2022-10-22T04:21:38;98202.66;;;16.18;86.12
62038;BME280;47991;42.974;12.082;2022-10-22T04:24:05;98200.02;;;16.17;85.74
62038;BME280;47991;42.974;12.082;2022-10-22T04:26:33;98208.55;;;16.18;85.86
62038;BME280;47991;42.974;12.082;2022-10-22T04:29:00;98206.21;;;16.22;85.55
62038;BME280;47991;42.974;12.082;2022-10-22T04:31:27;98209.28;;;16.18;85.71
62038;BME280;47991;42.974;12.082;2022-10-22T04:33:56;98206.75;;;16.22;85.60
62038;BME280;47991;42.974;12.082;2022-10-22T04:36:27;98217.87;;;16.17;85.74
62038;BME280;47991;42.974;12.082;2022-10-22T04:38:57;98218.58;;;16.17;85.79
62038;BME280;47991;42.974;12.082;2022-10-22T04:41:27;98226.54;;;16.19;85.75
62038;BME280;47991;42.974;12.082;2022-10-22T04:43:57;98226.63;;;16.21;85.54
62038;BME280;47991;42.974;12.082;2022-10-22T04:46:27;98230.73;;;16.20;85.59
62038;BME280;47991;42.974;12.082;2022-10-22T04:48:54;98230.88;;;16.21;85.37
62038;BME280;47991;42.974;12.082;2022-10-22T04:51:23;98229.67;;;16.24;85.10
62038;BME280;47991;42.974;12.082;2022-10-22T04:53:52;98227.66;;;16.22;85.46
62038;BME280;47991;42.974;12.082;2022-10-22T04:56:21;98220.37;;;16.21;85.25
62038;BME280;47991;42.974;12.082;2022-10-22T04:58:53;98213.98;;;16.20;85.26
62038;BME280;47991;42.974;12.082;2022-10-22T05:01:21;98211.54;;;16.27;84.90
62038;BME280;47991;42.974;12.082;2022-10-22T05:03:51;98200.29;;;16.23;84.87
62038;BME280;47991;42.974;12.082;2022-10-22T05:06:19;98196.55;;;16.23;84.96
62038;BME280;47991;42.974;12.082;2022-10-22T05:08:47;98188.79;;;16.25;84.80
62038;BME280;47991;42.974;12.082;2022-10-22T05:11:17;98181.32;;;16.25;84.95
62038;BME280;47991;42.974;12.082;2022-10-22T05:13:45;98180.94;;;16.25;84.83
62038;BME280;47991;42.974;12.082;2022-10-22T05:16:13;98175.08;;;16.28;84.60
62038;BME280;47991;42.974;12.082;2022-10-22T05:18:42;98174.59;;;16.31;84.57
62038;BME280;47991;42.974;12.082;2022-10-22T05:21:18;98169.95;;;16.32;84.69
62038;BME280;47991;42.974;12.082;2022-10-22T05:23:47;98175.05;;;16.33;84.66
62038;BME280;47991;42.974;12.082;2022-10-22T05:26:19;98169.60;;;16.35;84.34
62038;BME280;47991;42.974;12.082;2022-10-22T05:28:48;98153.21;;;16.35;84.34
62038;BME280;47991;42.974;12.082;2022-10-22T05:31:16;98150.21;;;16.34;84.47
62038;BME280;47991;42.974;12.082;2022-10-22T05:33:45;98143.81;;;16.33;84.45
62038;BME280;47991;42.974;12.082;2022-10-22T05:36:15;98137.14;;;16.31;84.44
62038;BME280;47991;42.974;12.082;2022-10-22T05:38:43;98139.29;;;16.31;84.32
62038;BME280;47991;42.974;12.082;2022-10-22T05:41:16;98140.38;;;16.30;84.44
62038;BME280;47991;42.974;12.082;2022-10-22T05:43:44;98142.99;;;16.28;84.56
62038;BME280;47991;42.974;12.082;2022-10-22T05:46:17;98136.44;;;16.27;84.71
62038;BME280;47991;42.974;12.082;2022-10-22T05:48:56;98124.66;;;16.27;84.65
62038;BME280;47991;42.974;12.082;2022-10-22T05:51:25;98119.91;;;16.33;84.20
62038;BME280;47991;42.974;12.082;2022-10-22T05:53:54;98134.25;;;16.32;84.25
62038;BME280;47991;42.974;12.082;2022-10-22T05:56:23;98130.60;;;16.34;84.15
62038;BME280;47991;42.974;12.082;2022-10-22T05:58:51;98138.70;;;16.36;84.00
62038;BME280;47991;42.974;12.082;2022-10-22T06:01:24;98129.16;;;16.38;83.82
62038;BME280;47991;42.974;12.082;2022-10-22T06:03:55;98130.09;;;16.40;83.42
62038;BME280;47991;42.974;12.082;2022-10-22T06:06:32;98149.93;;;16.40;83.49
62038;BME280;47991;42.974;12.082;2022-10-22T06:09:03;98162.00;;;16.45;83.26
62038;BME280;47991;42.974;12.082;2022-10-22T06:11:31;98174.23;;;16.47;83.29
62038;BME280;47991;42.974;12.082;2022-10-22T06:13:59;98181.56;;;16.47;83.37
62038;BME280;47991;42.974;12.082;2022-10-22T06:16:28;98190.45;;;16.52;83.17
62038;BME280;47991;42.974;12.082;2022-10-22T06:18:58;98193.67;;;16.55;83.03
62038;BME280;47991;42.974;12.082;2022-10-22T06:21:28;98181.77;;;16.58;82.90
62038;BME280;47991;42.974;12.082;2022-10-22T06:23:57;98185.45;;;16.59;83.00
62038;BME280;47991;42.974;12.082;2022-10-22T06:26:25;98192.71;;;16.65;82.81
62038;BME280;47991;42.974;12.082;2022-10-22T06:28:54;98196.08;;;16.65;82.90
62038;BME280;47991;42.974;12.082;2022-10-22T06:31:23;98198.24;;;16.73;82.62
62038;BME280;47991;42.974;12.082;2022-10-22T06:33:51;98200.13;;;16.78;82.43
62038;BME280;47991;42.974;12.082;2022-10-22T06:36:20;98202.98;;;16.82;82.27
62038;BME280;47991;42.974;12.082;2022-10-22T06:38:52;98205.98;;;16.87;82.09
62038;BME280;47991;42.974;12.082;2022-10-22T06:41:21;98203.70;;;16.90;82.19
62038;BME280;47991;42.974;12.082;2022-10-22T06:43:49;98212.71;;;16.92;81.94
62038;BME280;47991;42.974;12.082;2022-10-22T06:46:19;98214.80;;;16.93;81.82
62038;BME280;47991;42.974;12.082;2022-10-22T06:48:53;98218.41;;;17.00;81.85
62038;BME280;47991;42.974;12.082;2022-10-22T06:51:22;98218.13;;;17.02;81.67
62038;BME280;47991;42.974;12.082;2022-10-22T06:53:50;98228.83;;;17.10;81.48
62038;BME280;47991;42.974;12.082;2022-10-22T06:56:19;98225.61;;;17.10;81.26
62038;BME280;47991;42.974;12.082;2022-10-22T06:58:48;98229.87;;;17.15;81.26
62038;BME280;47991;42.974;12.082;2022-10-22T07:01:17;98229.71;;;17.26;80.87
62038;BME280;47991;42.974;12.082;2022-10-22T07:03:45;98231.89;;;17.25;80.81
62038;BME280;47991;42.974;12.082;2022-10-22T07:06:13;98230.34;;;17.42;80.40
62038;BME280;47991;42.974;12.082;2022-10-22T07:08:41;98230.00;;;17.49;80.05
62038;BME280;47991;42.974;12.082;2022-10-22T07:11:14;98227.70;;;17.53;79.90
62038;BME280;47991;42.974;12.082;2022-10-22T07:13:44;98242.77;;;17.55;79.69
62038;BME280;47991;42.974;12.082;2022-10-22T07:16:12;98245.09;;;17.62;79.65
62038;BME280;47991;42.974;12.082;2022-10-22T07:18:41;98245.92;;;17.71;79.21
62038;BME280;47991;42.974;12.082;2022-10-22T07:21:10;98247.34;;;17.75;78.89
62038;BME280;47991;42.974;12.082;2022-10-22T07:23:38;98255.44;;;17.85;78.57
62038;BME280;47991;42.974;12.082;2022-10-22T07:26:06;98260.29;;;17.99;78.39
62038;BME280;47991;42.974;12.082;2022-10-22T07:28:35;98264.98;;;18.12;78.12
62038;BME280;47991;42.974;12.082;2022-10-22T07:31:05;98272.43;;;18.28;77.55
62038;BME280;47991;42.974;12.082;2022-10-22T07:33:32;98272.73;;;18.29;77.35
62038;BME280;47991;42.974;12.082;2022-10-22T07:36:02;98274.77;;;18.17;77.56
62038;BME280;47991;42.974;12.082;2022-10-22T07:38:30;98274.73;;;18.14;77.70
62038;BME280;47991;42.974;12.082;2022-10-22T07:40:58;98280.14;;;18.13;77.76
62038;BME280;47991;42.974;12.082;2022-10-22T07:43:26;98279.95;;;18.10;78.18
62038;BME280;47991;42.974;12.082;2022-10-22T07:45:53;98279.26;;;18.24;77.52
62038;BME280;47991;42.974;12.082;2022-10-22T07:48:22;98281.17;;;18.28;77.47
62038;BME280;47991;42.974;12.082;2022-10-22T07:50:50;98277.23;;;18.32;77.36
62038;BME280;47991;42.974;12.082;2022-10-22T07:53:18;98277.73;;;18.33;77.24
62038;BME280;47991;42.974;12.082;2022-10-22T07:55:50;98280.33;;;18.23;77.43
62038;BME280;47991;42.974;12.082;2022-10-22T07:58:17;98275.38;;;18.16;77.90
62038;BME280;47991;42.974;12.082;2022-10-22T08:00:46;98280.14;;;18.17;77.85
62038;BME280;47991;42.974;12.082;2022-10-22T08:03:16;98281.17;;;18.25;77.66
62038;BME280;47991;42.974;12.082;2022-10-22T08:05:44;98283.82;;;18.43;77.19
62038;BME280;47991;42.974;12.082;2022-10-22T08:08:13;98285.50;;;18.55;76.82
62038;BME280;47991;42.974;12.082;2022-10-22T08:10:41;98277.11;;;18.69;76.66
62038;BME280;47991;42.974;12.082;2022-10-22T08:13:09;98273.53;;;18.92;76.00
62038;BME280;47991;42.974;12.082;2022-10-22T08:15:37;98276.02;;;19.00;75.49
62038;BME280;47991;42.974;12.082;2022-10-22T08:18:04;98280.73;;;19.12;75.42
62038;BME280;47991;42.974;12.082;2022-10-22T08:20:32;98280.16;;;19.28;74.58
62038;BME280;47991;42.974;12.082;2022-10-22T08:22:59;98281.59;;;19.48;73.81
62038;BME280;47991;42.974;12.082;2022-10-22T08:25:27;98283.02;;;19.48;73.44
62038;BME280;47991;42.974;12.082;2022-10-22T08:27:54;98284.56;;;19.43;73.80
62038;BME280;47991;42.974;12.082;2022-10-22T08:30:21;98290.98;;;19.66;73.09
62038;BME280;47991;42.974;12.082;2022-10-22T08:32:49;98288.23;;;19.83;73.12
62038;BME280;47991;42.974;12.082;2022-10-22T08:35:17;98294.64;;;19.96;72.69
62038;BME280;47991;42.974;12.082;2022-10-22T08:37:44;98300.31;;;20.04;72.20
62038;BME280;47991;42.974;12.082;2022-10-22T08:40:22;98295.02;;;20.15;71.66
62038;BME280;47991;42.974;12.082;2022-10-22T08:43:03;98301.98;;;20.33;71.09
62038;BME280;47991;42.974;12.082;2022-10-22T08:45:50;98299.14;;;20.42;70.95
62038;BME280;47991;42.974;12.082;2022-10-22T08:50:51;98303.78;;;20.61;70.54
62038;BME280;47991;42.974;12.082;2022-10-22T08:54:14;98296.34;;;20.62;70.48
62038;BME280;47991;42.974;12.082;2022-10-22T08:56:09;98301.09;;;20.51;70.16
62038;BME280;47991;42.974;12.082;2022-10-22T08:58:54;98304.25;;;20.53;70.16
62038;BME280;47991;42.974;12.082;2022-10-22T09:01:39;98307.44;;;20.47;69.25
62038;BME280;47991;42.974;12.082;2022-10-22T09:06:45;98302.27;;;21.40;67.32
62038;BME280;47991;42.974;12.082;2022-10-22T09:09:18;98299.02;;;21.24;67.25
62038;BME280;47991;42.974;12.082;2022-10-22T09:11:49;98290.25;;;21.08;67.69
62038;BME280;47991;42.974;12.082;2022-10-22T09:14:18;98281.85;;;21.08;67.51
62038;BME280;47991;42.974;12.082;2022-10-22T09:17:16;98271.51;;;20.87;68.16
62038;BME280;47991;42.974;12.082;2022-10-22T09:25:26;98270.40;;;20.66;68.94
62038;BME280;47991;42.974;12.082;2022-10-22T09:27:54;98265.91;;;20.81;68.23
62038;BME280;47991;42.974;12.082;2022-10-22T09:30:28;98260.27;;;20.93;67.95
62038;BME280;47991;42.974;12.082;2022-10-22T09:33:03;98256.69;;;20.82;67.96
62038;BME280;47991;42.974;12.082;2022-10-22T09:35:37;98264.10;;;20.78;67.98
62038;BME280;47991;42.974;12.082;2022-10-22T09:38:12;98265.59;;;20.59;68.79
62038;BME280;47991;42.974;12.082;2022-10-22T09:40:49;98270.02;;;20.55;68.97
62038;BME280;47991;42.974;12.082;2022-10-22T09:43:17;98266.08;;;20.36;69.52
62038;BME280;47991;42.974;12.082;2022-10-22T09:45:46;98269.10;;;20.52;69.44
62038;BME280;47991;42.974;12.082;2022-10-22T09:50:49;98272.98;;;20.83;68.80
62038;BME280;47991;42.974;12.082;2022-10-22T09:53:25;98275.19;;;20.94;68.57
62038;BME280;47991;42.974;12.082;2022-10-22T09:55:58;98276.86;;;20.98;68.49
62038;BME280;47991;42.974;12.082;2022-10-22T09:58:27;98275.97;;;21.01;67.93
62038;BME280;47991;42.974;12.082;2022-10-22T10:00:57;98276.07;;;20.71;68.86
62038;BME280;47991;42.974;12.082;2022-10-22T10:03:30;98284.24;;;20.60;69.21
62038;BME280;47991;42.974;12.082;2022-10-22T10:06:00;98281.92;;;20.60;69.17
62038;BME280;47991;42.974;12.082;2022-10-22T10:08:54;98281.89;;;20.51;69.55
62038;BME280;47991;42.974;12.082;2022-10-22T10:11:28;98275.10;;;20.57;69.54
62038;BME280;47991;42.974;12.082;2022-10-22T10:14:19;98277.37;;;20.55;70.01
62038;BME280;47991;42.974;12.082;2022-10-22T10:19:20;98267.12;;;20.70;69.18
62038;BME280;47991;42.974;12.082;2022-10-22T10:25:18;98274.39;;;20.92;68.26
62038;BME280;47991;42.974;12.082;2022-10-22T10:28:01;98272.58;;;21.27;67.91
62038;BME280;47991;42.974;12.082;2022-10-22T10:30:30;98283.46;;;21.31;67.27
62038;BME280;47991;42.974;12.082;2022-10-22T10:35:35;98275.91;;;21.39;67.02
62038;BME280;47991;42.974;12.082;2022-10-22T10:41:16;98276.73;;;21.29;67.78
62038;BME280;47991;42.974;12.082;2022-10-22T10:47:20;98272.22;;;21.41;67.09
62038;BME280;47991;42.974;12.082;2022-10-22T10:55:36;98256.45;;;22.30;64.60
62038;BME280;47991;42.974;12.082;2022-10-22T10:58:41;98250.23;;;22.47;64.05
62038;BME280;47991;42.974;12.082;2022-10-22T11:01:26;98243.41;;;22.52;63.32
62038;BME280;47991;42.974;12.082;2022-10-22T11:06:57;98248.35;;;22.62;62.82
62038;BME280;47991;42.974;12.082;2022-10-22T11:09:32;98244.06;;;22.76;62.45
62038;BME280;47991;42.974;12.082;2022-10-22T11:12:07;98220.73;;;22.93;61.21
62038;BME280;47991;42.974;12.082;2022-10-22T11:17:39;98216.30;;;23.45;60.06
62038;BME280;47991;42.974;12.082;2022-10-22T11:20:52;98215.08;;;23.83;58.93
62038;BME280;47991;42.974;12.082;2022-10-22T11:23:03;98219.52;;;23.98;58.30
62038;BME280;47991;42.974;12.082;2022-10-22T11:25:38;98208.30;;;24.51;57.02
62038;BME280;47991;42.974;12.082;2022-10-22T11:28:12;98197.56;;;24.88;55.42
62038;BME280;47991;42.974;12.082;2022-10-22T11:30:43;98199.27;;;24.57;55.86
62038;BME280;47991;42.974;12.082;2022-10-22T11:33:20;98202.01;;;24.38;56.63
62038;BME280;47991;42.974;12.082;2022-10-22T11:35:51;98205.85;;;24.49;56.67
62038;BME280;47991;42.974;12.082;2022-10-22T11:38:24;98198.77;;;24.57;56.36
62038;BME280;47991;42.974;12.082;2022-10-22T11:41:02;98190.18;;;24.65;55.77
62038;BME280;47991;42.974;12.082;2022-10-22T11:44:08;98191.45;;;24.81;55.56
62038;BME280;47991;42.974;12.082;2022-10-22T11:46:44;98189.41;;;24.28;56.22
62038;BME280;47991;42.974;12.082;2022-10-22T11:51:41;98195.36;;;23.74;58.32
62038;BME280;47991;42.974;12.082;2022-10-22T11:54:38;98189.30;;;23.68;58.89
62038;BME280;47991;42.974;12.082;2022-10-22T11:57:18;98178.59;;;23.78;58.29
62038;BME280;47991;42.974;12.082;2022-10-22T12:02:30;98187.45;;;23.56;58.90
62038;BME280;47991;42.974;12.082;2022-10-22T12:05:36;98198.88;;;23.58;58.98
62038;BME280;47991;42.974;12.082;2022-10-22T12:08:13;98200.39;;;23.52;59.33
62038;BME280;47991;42.974;12.082;2022-10-22T12:19:13;98180.48;;;23.87;57.78
62038;BME280;47991;42.974;12.082;2022-10-22T12:21:43;98185.36;;;23.74;58.67
62038;BME280;47991;42.974;12.082;2022-10-22T12:24:14;98185.88;;;23.87;58.45
62038;BME280;47991;42.974;12.082;2022-10-22T12:26:42;98176.30;;;23.94;57.70
62038;BME280;47991;42.974;12.082;2022-10-22T12:29:14;98173.28;;;23.89;57.99
62038;BME280;47991;42.974;12.082;2022-10-22T12:31:43;98172.66;;;23.85;57.92
62038;BME280;47991;42.974;12.082;2022-10-22T12:34:16;98165.98;;;23.92;58.16
62038;BME280;47991;42.974;12.082;2022-10-22T12:36:46;98169.64;;;23.96;58.02
62038;BME280;47991;42.974;12.082;2022-10-22T12:39:19;98166.02;;;24.16;57.34
62038;BME280;47991;42.974;12.082;2022-10-22T12:41:48;98163.91;;;24.24;57.42
62038;BME280;47991;42.974;12.082;2022-10-22T12:44:16;98171.23;;;24.32;57.69
62038;BME280;47991;42.974;12.082;2022-10-22T12:46:46;98166.16;;;24.51;57.10
62038;BME280;47991;42.974;12.082;2022-10-22T12:49:19;98157.89;;;24.48;57.01
62038;BME280;47991;42.974;12.082;2022-10-22T12:51:48;98164.34;;;24.32;57.32
62038;BME280;47991;42.974;12.082;2022-10-22T12:54:25;98151.55;;;24.25;57.58
62038;BME280;47991;42.974;12.082;2022-10-22T12:56:55;98153.99;;;24.19;57.32
62038;BME280;47991;42.974;12.082;2022-10-22T12:59:38;98157.18;;;23.94;58.08
62038;BME280;47991;42.974;12.082;2022-10-22T13:02:34;98156.29;;;23.79;58.53
62038;BME280;47991;42.974;12.082;2022-10-22T13:05:23;98150.95;;;23.66;59.47
62038;BME280;47991;42.974;12.082;2022-10-22T13:08:00;98148.97;;;23.68;59.35
62038;BME280;47991;42.974;12.082;2022-10-22T13:10:36;98145.46;;;23.48;59.97
62038;BME280;47991;42.974;12.082;2022-10-22T13:13:04;98151.78;;;23.58;59.90
62038;BME280;47991;42.974;12.082;2022-10-22T13:15:37;98151.82;;;23.40;60.42
62038;BME280;47991;42.974;12.082;2022-10-22T13:18:17;98143.33;;;23.36;60.60
62038;BME280;47991;42.974;12.082;2022-10-22T13:21:00;98141.65;;;23.27;60.84
62038;BME280;47991;42.974;12.082;2022-10-22T13:23:33;98152.48;;;23.24;61.14
62038;BME280;47991;42.974;12.082;2022-10-22T13:26:13;98156.60;;;23.39;60.74
62038;BME280;47991;42.974;12.082;2022-10-22T13:28:41;98153.20;;;23.41;60.14
62038;BME280;47991;42.974;12.082;2022-10-22T13:31:25;98155.14;;;23.37;59.93
62038;BME280;47991;42.974;12.082;2022-10-22T13:33:59;98169.46;;;23.24;61.07
62038;BME280;47991;42.974;12.082;2022-10-22T13:36:28;98173.36;;;23.23;61.45
62038;BME280;47991;42.974;12.082;2022-10-22T13:38:55;98182.45;;;23.34;60.66
62038;BME280;47991;42.974;12.082;2022-10-22T13:41:29;98176.09;;;23.44;60.03
62038;BME280;47991;42.974;12.082;2022-10-22T13:43:58;98179.94;;;23.41;60.20
62038;BME280;47991;42.974;12.082;2022-10-22T13:46:26;98176.48;;;23.22;60.82
62038;BME280;47991;42.974;12.082;2022-10-22T13:48:55;98179.75;;;23.31;60.65
62038;BME280;47991;42.974;12.082;2022-10-22T13:51:31;98189.83;;;23.29;60.74
62038;BME280;47991;42.974;12.082;2022-10-22T13:54:03;98185.48;;;23.34;60.97
62038;BME280;47991;42.974;12.082;2022-10-22T13:56:35;98185.03;;;23.35;60.78
62038;BME280;47991;42.974;12.082;2022-10-22T13:59:02;98186.49;;;23.20;61.69
62038;BME280;47991;42.974;12.082;2022-10-22T14:01:30;98183.59;;;23.28;60.89
62038;BME280;47991;42.974;12.082;2022-10-22T14:03:58;98187.00;;;23.11;61.38
62038;BME280;47991;42.974;12.082;2022-10-22T14:06:29;98191.65;;;22.98;61.99
62038;BME280;47991;42.974;12.082;2022-10-22T14:09:04;98199.35;;;22.97;61.67
62038;BME280;47991;42.974;12.082;2022-10-22T14:11:31;98199.44;;;23.01;60.79
62038;BME280;47991;42.974;12.082;2022-10-22T14:14:01;98200.61;;;23.05;60.70
62038;BME280;47991;42.974;12.082;2022-10-22T14:16:35;98212.67;;;22.82;61.56
62038;BME280;47991;42.974;12.082;2022-10-22T14:19:04;98221.77;;;22.55;62.59
62038;BME280;47991;42.974;12.082;2022-10-22T14:21:34;98221.44;;;22.52;62.94
62038;BME280;47991;42.974;12.082;2022-10-22T14:24:02;98222.66;;;22.39;63.55
62038;BME280;47991;42.974;12.082;2022-10-22T14:26:31;98221.16;;;22.30;63.86
62038;BME280;47991;42.974;12.082;2022-10-22T14:29:00;98221.86;;;22.25;63.63
62038;BME280;47991;42.974;12.082;2022-10-22T14:31:28;98215.61;;;22.37;63.25